sensor_id;sensor_type;location;lat;lon;timestamp;P1;durP1;ratioP1;P2;durP2;ratioP2
2191;SDS011;1102;49.718;11.902;2023-02-17T00:00:54;56.60;;;30.30;;
2191;SDS011;1102;49.718;11.902;2023-02-17T00:03:22;52.63;;;33.97;;
2191;SDS011;1102;49.718;11.902;2023-02-17T00:05:49;44.33;;;28.57;;
2191;SDS011;1102;49.718;11.902;2023-02-17T00:08:16;48.50;;;29.97;;
2191;SDS011;1102;49.718;11.902;2023-02-17T00:10:43;45.73;;;30.60;;
2191;SDS011;1102;49.718;11.902;2023-02-17T00:13:10;50.30;;;29.40;;
2191;SDS011;1102;49.718;11.902;2023-02-17T00:15:39;45.33;;;30.03;;
2191;SDS011;1102;49.718;11.902;2023-02-17T00:18:06;46.70;;;28.40;;
2191;SDS011;1102;49.718;11.902;2023-02-17T00:20:33;46.73;;;27.47;;
2191;SDS011;1102;49.718;11.902;2023-02-17T00:22:59;44.60;;;27.27;;
2191;SDS011;1102;49.718;11.902;2023-02-17T00:25:26;39.87;;;27.40;;
2191;SDS011;1102;49.718;11.902;2023-02-17T00:27:52;37.50;;;25.30;;
2191;SDS011;1102;49.718;11.902;2023-02-17T00:30:19;39.93;;;27.23;;
2191;SDS011;1102;49.718;11.902;2023-02-17T00:32:46;35.53;;;26.13;;
2191;SDS011;1102;49.718;11.902;2023-02-17T00:35:13;41.60;;;27.23;;
2191;SDS011;1102;49.718;11.902;2023-02-17T00:37:40;34.93;;;27.00;;
2191;SDS011;1102;49.718;11.902;2023-02-17T00:40:11;37.90;;;25.10;;
2191;SDS011;1102;49.718;11.902;2023-02-17T00:42:38;42.70;;;25.70;;
2191;SDS011;1102;49.718;11.902;2023-02-17T00:45:05;37.77;;;24.77;;
2191;SDS011;1102;49.718;11.902;2023-02-17T00:47:32;39.30;;;25.57;;
2191;SDS011;1102;49.718;11.902;2023-02-17T00:49:59;38.17;;;25.70;;
2191;SDS011;1102;49.718;11.902;2023-02-17T00:52:26;38.13;;;26.97;;
2191;SDS011;1102;49.718;11.902;2023-02-17T00:54:52;45.67;;;27.30;;
2191;SDS011;1102;49.718;11.902;2023-02-17T00:57:19;39.47;;;25.07;;
2191;SDS011;1102;49.718;11.902;2023-02-17T00:59:46;37.77;;;25.27;;
2191;SDS011;1102;49.718;11.902;2023-02-17T01:02:12;36.47;;;25.37;;
2191;SDS011;1102;49.718;11.902;2023-02-17T01:04:39;35.20;;;26.33;;
2191;SDS011;1102;49.718;11.902;2023-02-17T01:07:06;36.40;;;25.63;;
2191;SDS011;1102;49.718;11.902;2023-02-17T01:09:32;36.03;;;24.07;;
2191;SDS011;1102;49.718;11.902;2023-02-17T01:11:59;36.53;;;24.90;;
2191;SDS011;1102;49.718;11.902;2023-02-17T01:14:26;37.33;;;24.00;;
2191;SDS011;1102;49.718;11.902;2023-02-17T01:16:54;39.90;;;25.50;;
2191;SDS011;1102;49.718;11.902;2023-02-17T01:19:21;46.20;;;25.53;;
2191;SDS011;1102;49.718;11.902;2023-02-17T01:21:47;39.70;;;28.07;;
2191;SDS011;1102;49.718;11.902;2023-02-17T01:24:14;37.70;;;24.80;;
2191;SDS011;1102;49.718;11.902;2023-02-17T01:26:41;36.80;;;25.10;;
2191;SDS011;1102;49.718;11.902;2023-02-17T01:29:07;36.43;;;23.87;;
2191;SDS011;1102;49.718;11.902;2023-02-17T01:31:34;35.83;;;25.57;;
2191;SDS011;1102;49.718;11.902;2023-02-17T01:34:02;39.77;;;25.90;;
2191;SDS011;1102;49.718;11.902;2023-02-17T01:36:29;37.10;;;23.17;;
2191;SDS011;1102;49.718;11.902;2023-02-17T01:38:57;46.27;;;25.90;;
2191;SDS011;1102;49.718;11.902;2023-02-17T01:41:24;33.23;;;24.77;;
2191;SDS011;1102;49.718;11.902;2023-02-17T01:44:03;37.80;;;24.30;;
2191;SDS011;1102;49.718;11.902;2023-02-17T01:46:33;38.10;;;24.77;;
2191;SDS011;1102;49.718;11.902;2023-02-17T01:49:02;33.27;;;24.90;;
2191;SDS011;1102;49.718;11.902;2023-02-17T01:51:37;35.10;;;24.87;;
2191;SDS011;1102;49.718;11.902;2023-02-17T01:54:08;32.50;;;22.50;;
2191;SDS011;1102;49.718;11.902;2023-02-17T01:56:47;39.33;;;24.70;;
2191;SDS011;1102;49.718;11.902;2023-02-17T01:59:16;42.40;;;24.53;;
2191;SDS011;1102;49.718;11.902;2023-02-17T02:01:47;34.10;;;24.63;;
2191;SDS011;1102;49.718;11.902;2023-02-17T02:04:18;41.70;;;25.40;;
2191;SDS011;1102;49.718;11.902;2023-02-17T02:06:48;38.03;;;23.33;;
2191;SDS011;1102;49.718;11.902;2023-02-17T02:09:18;34.93;;;24.80;;
2191;SDS011;1102;49.718;11.902;2023-02-17T02:11:49;36.00;;;24.40;;
2191;SDS011;1102;49.718;11.902;2023-02-17T02:14:17;35.97;;;23.70;;
2191;SDS011;1102;49.718;11.902;2023-02-17T02:27:42;36.13;;;21.37;;
2191;SDS011;1102;49.718;11.902;2023-02-17T02:38:34;40.37;;;27.30;;
2191;SDS011;1102;49.718;11.902;2023-02-17T02:41:14;44.67;;;27.47;;
2191;SDS011;1102;49.718;11.902;2023-02-17T02:43:48;42.63;;;27.17;;
2191;SDS011;1102;49.718;11.902;2023-02-17T02:46:15;46.57;;;27.20;;
2191;SDS011;1102;49.718;11.902;2023-02-17T02:48:42;36.73;;;26.97;;
2191;SDS011;1102;49.718;11.902;2023-02-17T02:53:43;43.33;;;29.73;;
2191;SDS011;1102;49.718;11.902;2023-02-17T03:04:37;39.93;;;26.20;;
2191;SDS011;1102;49.718;11.902;2023-02-17T03:07:15;39.90;;;25.40;;
2191;SDS011;1102;49.718;11.902;2023-02-17T03:09:48;43.07;;;26.67;;
2191;SDS011;1102;49.718;11.902;2023-02-17T03:12:17;38.53;;;26.20;;
2191;SDS011;1102;49.718;11.902;2023-02-17T03:14:45;41.93;;;25.97;;
2191;SDS011;1102;49.718;11.902;2023-02-17T03:17:15;37.60;;;26.77;;
2191;SDS011;1102;49.718;11.902;2023-02-17T03:19:47;38.43;;;26.40;;
2191;SDS011;1102;49.718;11.902;2023-02-17T03:22:23;34.97;;;24.20;;
2191;SDS011;1102;49.718;11.902;2023-02-17T03:24:55;37.93;;;27.00;;
2191;SDS011;1102;49.718;11.902;2023-02-17T03:27:21;37.53;;;23.00;;
2191;SDS011;1102;49.718;11.902;2023-02-17T03:29:48;40.73;;;25.93;;
2191;SDS011;1102;49.718;11.902;2023-02-17T03:32:16;37.63;;;27.17;;
2191;SDS011;1102;49.718;11.902;2023-02-17T03:34:43;39.00;;;27.00;;
2191;SDS011;1102;49.718;11.902;2023-02-17T03:37:10;36.10;;;24.63;;
2191;SDS011;1102;49.718;11.902;2023-02-17T03:39:37;35.83;;;26.10;;
2191;SDS011;1102;49.718;11.902;2023-02-17T03:42:03;40.57;;;24.77;;
2191;SDS011;1102;49.718;11.902;2023-02-17T03:44:30;33.57;;;24.23;;
2191;SDS011;1102;49.718;11.902;2023-02-17T03:46:56;40.53;;;25.20;;
2191;SDS011;1102;49.718;11.902;2023-02-17T03:49:23;38.03;;;25.47;;
2191;SDS011;1102;49.718;11.902;2023-02-17T03:51:50;36.57;;;24.73;;
2191;SDS011;1102;49.718;11.902;2023-02-17T03:54:16;37.13;;;25.23;;
2191;SDS011;1102;49.718;11.902;2023-02-17T03:56:43;33.43;;;23.13;;
2191;SDS011;1102;49.718;11.902;2023-02-17T03:59:09;37.00;;;25.87;;
2191;SDS011;1102;49.718;11.902;2023-02-17T04:01:36;35.10;;;23.07;;
2191;SDS011;1102;49.718;11.902;2023-02-17T04:04:03;35.63;;;23.67;;
2191;SDS011;1102;49.718;11.902;2023-02-17T04:06:30;32.43;;;23.67;;
2191;SDS011;1102;49.718;11.902;2023-02-17T04:08:56;37.00;;;23.43;;
2191;SDS011;1102;49.718;11.902;2023-02-17T04:11:23;33.70;;;23.70;;
2191;SDS011;1102;49.718;11.902;2023-02-17T04:13:49;35.90;;;23.23;;
2191;SDS011;1102;49.718;11.902;2023-02-17T04:16:16;33.40;;;22.70;;
2191;SDS011;1102;49.718;11.902;2023-02-17T04:18:44;41.37;;;28.37;;
2191;SDS011;1102;49.718;11.902;2023-02-17T04:21:11;37.70;;;27.30;;
2191;SDS011;1102;49.718;11.902;2023-02-17T04:23:37;36.97;;;23.80;;
2191;SDS011;1102;49.718;11.902;2023-02-17T04:26:05;33.57;;;25.07;;
2191;SDS011;1102;49.718;11.902;2023-02-17T04:28:36;32.60;;;23.00;;
2191;SDS011;1102;49.718;11.902;2023-02-17T04:31:03;38.50;;;22.80;;
2191;SDS011;1102;49.718;11.902;2023-02-17T04:33:30;34.30;;;23.20;;
2191;SDS011;1102;49.718;11.902;2023-02-17T04:35:57;35.53;;;23.67;;
2191;SDS011;1102;49.718;11.902;2023-02-17T04:38:30;36.30;;;25.60;;
2191;SDS011;1102;49.718;11.902;2023-02-17T04:40:58;32.00;;;25.10;;
2191;SDS011;1102;49.718;11.902;2023-02-17T04:43:26;38.43;;;24.50;;
2191;SDS011;1102;49.718;11.902;2023-02-17T04:45:53;39.13;;;27.33;;
2191;SDS011;1102;49.718;11.902;2023-02-17T04:48:20;38.50;;;25.50;;
2191;SDS011;1102;49.718;11.902;2023-02-17T04:50:47;37.20;;;24.47;;
2191;SDS011;1102;49.718;11.902;2023-02-17T04:53:14;38.57;;;24.67;;
2191;SDS011;1102;49.718;11.902;2023-02-17T04:55:41;32.57;;;23.17;;
2191;SDS011;1102;49.718;11.902;2023-02-17T04:58:08;38.27;;;27.30;;
2191;SDS011;1102;49.718;11.902;2023-02-17T05:00:36;38.90;;;26.10;;
2191;SDS011;1102;49.718;11.902;2023-02-17T05:03:02;35.60;;;27.43;;
2191;SDS011;1102;49.718;11.902;2023-02-17T05:05:29;39.23;;;26.57;;
2191;SDS011;1102;49.718;11.902;2023-02-17T05:07:56;32.53;;;25.10;;
2191;SDS011;1102;49.718;11.902;2023-02-17T05:10:22;36.40;;;23.30;;
2191;SDS011;1102;49.718;11.902;2023-02-17T05:12:49;35.33;;;25.60;;
2191;SDS011;1102;49.718;11.902;2023-02-17T05:15:16;45.33;;;25.77;;
2191;SDS011;1102;49.718;11.902;2023-02-17T05:17:42;35.00;;;25.80;;
2191;SDS011;1102;49.718;11.902;2023-02-17T05:20:09;33.30;;;24.23;;
2191;SDS011;1102;49.718;11.902;2023-02-17T05:22:36;34.43;;;24.13;;
2191;SDS011;1102;49.718;11.902;2023-02-17T05:25:04;37.00;;;24.80;;
2191;SDS011;1102;49.718;11.902;2023-02-17T05:27:31;36.97;;;26.30;;
2191;SDS011;1102;49.718;11.902;2023-02-17T05:29:58;39.23;;;27.40;;
2191;SDS011;1102;49.718;11.902;2023-02-17T05:32:25;39.87;;;25.73;;
2191;SDS011;1102;49.718;11.902;2023-02-17T05:34:52;34.40;;;26.20;;
2191;SDS011;1102;49.718;11.902;2023-02-17T05:37:19;33.90;;;26.03;;
2191;SDS011;1102;49.718;11.902;2023-02-17T05:39:46;33.90;;;24.30;;
2191;SDS011;1102;49.718;11.902;2023-02-17T05:42:12;35.07;;;26.47;;
2191;SDS011;1102;49.718;11.902;2023-02-17T05:44:39;32.60;;;23.00;;
2191;SDS011;1102;49.718;11.902;2023-02-17T05:47:06;37.30;;;23.90;;
2191;SDS011;1102;49.718;11.902;2023-02-17T05:49:32;33.23;;;22.20;;
2191;SDS011;1102;49.718;11.902;2023-02-17T05:52:00;37.50;;;25.27;;
2191;SDS011;1102;49.718;11.902;2023-02-17T05:54:27;35.97;;;24.77;;
2191;SDS011;1102;49.718;11.902;2023-02-17T05:56:54;30.73;;;21.90;;
2191;SDS011;1102;49.718;11.902;2023-02-17T05:59:20;34.10;;;23.47;;
2191;SDS011;1102;49.718;11.902;2023-02-17T06:01:47;32.17;;;22.27;;
2191;SDS011;1102;49.718;11.902;2023-02-17T06:04:14;37.40;;;22.70;;
2191;SDS011;1102;49.718;11.902;2023-02-17T06:06:41;33.33;;;22.17;;
2191;SDS011;1102;49.718;11.902;2023-02-17T06:09:07;35.43;;;23.00;;
2191;SDS011;1102;49.718;11.902;2023-02-17T06:11:34;30.30;;;21.80;;
2191;SDS011;1102;49.718;11.902;2023-02-17T06:14:00;30.50;;;20.63;;
2191;SDS011;1102;49.718;11.902;2023-02-17T06:16:27;31.43;;;21.33;;
2191;SDS011;1102;49.718;11.902;2023-02-17T06:18:54;28.07;;;21.53;;
2191;SDS011;1102;49.718;11.902;2023-02-17T06:21:21;33.93;;;23.73;;
2191;SDS011;1102;49.718;11.902;2023-02-17T06:23:47;28.73;;;21.47;;
2191;SDS011;1102;49.718;11.902;2023-02-17T06:26:14;30.80;;;21.37;;
2191;SDS011;1102;49.718;11.902;2023-02-17T06:28:41;27.10;;;20.10;;
2191;SDS011;1102;49.718;11.902;2023-02-17T06:31:07;32.40;;;21.83;;
2191;SDS011;1102;49.718;11.902;2023-02-17T06:33:34;35.93;;;20.50;;
2191;SDS011;1102;49.718;11.902;2023-02-17T06:36:01;30.43;;;21.73;;
2191;SDS011;1102;49.718;11.902;2023-02-17T06:38:27;30.93;;;20.97;;
2191;SDS011;1102;49.718;11.902;2023-02-17T06:40:54;27.80;;;21.33;;
2191;SDS011;1102;49.718;11.902;2023-02-17T06:43:21;23.63;;;18.27;;
2191;SDS011;1102;49.718;11.902;2023-02-17T06:45:47;29.00;;;20.03;;
2191;SDS011;1102;49.718;11.902;2023-02-17T06:48:14;28.80;;;20.80;;
2191;SDS011;1102;49.718;11.902;2023-02-17T06:50:40;30.00;;;18.93;;
2191;SDS011;1102;49.718;11.902;2023-02-17T06:53:07;26.00;;;21.17;;
2191;SDS011;1102;49.718;11.902;2023-02-17T06:55:34;32.33;;;20.40;;
2191;SDS011;1102;49.718;11.902;2023-02-17T06:58:02;31.40;;;20.43;;
2191;SDS011;1102;49.718;11.902;2023-02-17T07:00:29;26.80;;;17.57;;
2191;SDS011;1102;49.718;11.902;2023-02-17T07:02:56;24.40;;;16.47;;
2191;SDS011;1102;49.718;11.902;2023-02-17T07:05:22;21.87;;;17.33;;
2191;SDS011;1102;49.718;11.902;2023-02-17T07:07:49;23.37;;;15.50;;
2191;SDS011;1102;49.718;11.902;2023-02-17T07:10:18;19.50;;;15.23;;
2191;SDS011;1102;49.718;11.902;2023-02-17T07:12:45;20.73;;;15.03;;
2191;SDS011;1102;49.718;11.902;2023-02-17T07:15:12;16.03;;;12.00;;
2191;SDS011;1102;49.718;11.902;2023-02-17T07:17:39;13.83;;;12.27;;
2191;SDS011;1102;49.718;11.902;2023-02-17T07:20:06;13.73;;;11.17;;
2191;SDS011;1102;49.718;11.902;2023-02-17T07:22:34;15.73;;;13.03;;
2191;SDS011;1102;49.718;11.902;2023-02-17T07:25:01;13.87;;;11.37;;
2191;SDS011;1102;49.718;11.902;2023-02-17T07:27:27;13.20;;;10.17;;
2191;SDS011;1102;49.718;11.902;2023-02-17T07:29:54;12.00;;;10.00;;
2191;SDS011;1102;49.718;11.902;2023-02-17T07:32:21;18.10;;;12.47;;
2191;SDS011;1102;49.718;11.902;2023-02-17T07:34:47;13.53;;;10.53;;
2191;SDS011;1102;49.718;11.902;2023-02-17T07:37:14;19.73;;;13.67;;
2191;SDS011;1102;49.718;11.902;2023-02-17T07:39:41;20.87;;;14.27;;
2191;SDS011;1102;49.718;11.902;2023-02-17T07:42:09;24.50;;;12.43;;
2191;SDS011;1102;49.718;11.902;2023-02-17T07:44:37;20.63;;;13.80;;
2191;SDS011;1102;49.718;11.902;2023-02-17T07:47:04;24.57;;;12.37;;
2191;SDS011;1102;49.718;11.902;2023-02-17T07:49:30;16.73;;;11.40;;
2191;SDS011;1102;49.718;11.902;2023-02-17T07:51:57;11.63;;;8.80;;
2191;SDS011;1102;49.718;11.902;2023-02-17T07:54:24;8.23;;;7.10;;
2191;SDS011;1102;49.718;11.902;2023-02-17T07:56:50;10.87;;;7.07;;
2191;SDS011;1102;49.718;11.902;2023-02-17T07:59:17;11.23;;;6.47;;
2191;SDS011;1102;49.718;11.902;2023-02-17T08:01:44;6.83;;;6.03;;
2191;SDS011;1102;49.718;11.902;2023-02-17T08:04:10;8.37;;;7.40;;
2191;SDS011;1102;49.718;11.902;2023-02-17T08:06:37;6.93;;;6.23;;
2191;SDS011;1102;49.718;11.902;2023-02-17T08:09:08;5.77;;;4.97;;
2191;SDS011;1102;49.718;11.902;2023-02-17T08:11:54;8.93;;;6.53;;
2191;SDS011;1102;49.718;11.902;2023-02-17T08:14:39;6.87;;;5.83;;
2191;SDS011;1102;49.718;11.902;2023-02-17T08:17:05;7.53;;;6.90;;
2191;SDS011;1102;49.718;11.902;2023-02-17T08:19:32;8.63;;;5.40;;
2191;SDS011;1102;49.718;11.902;2023-02-17T08:22:14;7.10;;;5.27;;
2191;SDS011;1102;49.718;11.902;2023-02-17T08:24:42;6.70;;;4.47;;
2191;SDS011;1102;49.718;11.902;2023-02-17T08:27:09;8.03;;;5.40;;
2191;SDS011;1102;49.718;11.902;2023-02-17T08:29:36;9.53;;;6.87;;
2191;SDS011;1102;49.718;11.902;2023-02-17T08:32:03;6.20;;;5.57;;
2191;SDS011;1102;49.718;11.902;2023-02-17T08:34:30;8.50;;;5.87;;
2191;SDS011;1102;49.718;11.902;2023-02-17T08:37:00;7.33;;;5.40;;
2191;SDS011;1102;49.718;11.902;2023-02-17T08:39:27;6.30;;;5.20;;
2191;SDS011;1102;49.718;11.902;2023-02-17T08:41:54;6.80;;;6.00;;
2191;SDS011;1102;49.718;11.902;2023-02-17T08:44:22;6.73;;;5.93;;
2191;SDS011;1102;49.718;11.902;2023-02-17T08:46:49;8.23;;;6.17;;
2191;SDS011;1102;49.718;11.902;2023-02-17T08:49:18;5.17;;;4.67;;
2191;SDS011;1102;49.718;11.902;2023-02-17T08:51:46;9.00;;;5.97;;
2191;SDS011;1102;49.718;11.902;2023-02-17T08:54:13;6.80;;;6.10;;
2191;SDS011;1102;49.718;11.902;2023-02-17T08:56:41;5.73;;;4.97;;
2191;SDS011;1102;49.718;11.902;2023-02-17T08:59:08;5.40;;;4.90;;
2191;SDS011;1102;49.718;11.902;2023-02-17T09:01:37;8.03;;;5.30;;
2191;SDS011;1102;49.718;11.902;2023-02-17T09:04:04;6.50;;;5.23;;
2191;SDS011;1102;49.718;11.902;2023-02-17T09:06:36;6.77;;;4.60;;
2191;SDS011;1102;49.718;11.902;2023-02-17T09:09:06;12.67;;;6.30;;
2191;SDS011;1102;49.718;11.902;2023-02-17T09:11:34;6.17;;;5.47;;
2191;SDS011;1102;49.718;11.902;2023-02-17T09:14:01;6.73;;;5.30;;
2191;SDS011;1102;49.718;11.902;2023-02-17T09:16:29;7.63;;;6.80;;
2191;SDS011;1102;49.718;11.902;2023-02-17T09:18:56;10.17;;;5.80;;
2191;SDS011;1102;49.718;11.902;2023-02-17T09:21:23;6.00;;;5.23;;
2191;SDS011;1102;49.718;11.902;2023-02-17T09:23:50;9.70;;;5.40;;
2191;SDS011;1102;49.718;11.902;2023-02-17T09:26:19;5.10;;;4.60;;
2191;SDS011;1102;49.718;11.902;2023-02-17T09:28:46;6.80;;;5.20;;
2191;SDS011;1102;49.718;11.902;2023-02-17T09:33:42;7.80;;;5.20;;
2191;SDS011;1102;49.718;11.902;2023-02-17T09:36:11;6.83;;;4.10;;
2191;SDS011;1102;49.718;11.902;2023-02-17T09:38:40;4.70;;;4.13;;
2191;SDS011;1102;49.718;11.902;2023-02-17T09:41:23;5.70;;;4.87;;
2191;SDS011;1102;49.718;11.902;2023-02-17T09:43:54;5.73;;;3.77;;
2191;SDS011;1102;49.718;11.902;2023-02-17T09:46:32;3.50;;;3.20;;
2191;SDS011;1102;49.718;11.902;2023-02-17T09:49:03;13.23;;;4.67;;
2191;SDS011;1102;49.718;11.902;2023-02-17T09:51:42;6.20;;;5.23;;
2191;SDS011;1102;49.718;11.902;2023-02-17T09:54:56;4.00;;;3.30;;
2191;SDS011;1102;49.718;11.902;2023-02-17T09:57:07;6.90;;;5.53;;
2191;SDS011;1102;49.718;11.902;2023-02-17T09:59:43;3.37;;;3.07;;
2191;SDS011;1102;49.718;11.902;2023-02-17T10:02:16;3.83;;;3.53;;
2191;SDS011;1102;49.718;11.902;2023-02-17T10:05:05;5.10;;;3.20;;
2191;SDS011;1102;49.718;11.902;2023-02-17T10:07:36;3.90;;;3.57;;
2191;SDS011;1102;49.718;11.902;2023-02-17T10:10:10;11.60;;;8.77;;
2191;SDS011;1102;49.718;11.902;2023-02-17T10:12:44;4.43;;;3.83;;
2191;SDS011;1102;49.718;11.902;2023-02-17T10:15:16;4.67;;;4.17;;
2191;SDS011;1102;49.718;11.902;2023-02-17T10:18:07;7.60;;;5.17;;
2191;SDS011;1102;49.718;11.902;2023-02-17T10:20:49;5.00;;;3.97;;
2191;SDS011;1102;49.718;11.902;2023-02-17T10:23:23;6.70;;;4.77;;
2191;SDS011;1102;49.718;11.902;2023-02-17T10:31:04;5.43;;;4.93;;
2191;SDS011;1102;49.718;11.902;2023-02-17T10:33:46;21.70;;;17.77;;
2191;SDS011;1102;49.718;11.902;2023-02-17T10:36:29;7.50;;;5.03;;
2191;SDS011;1102;49.718;11.902;2023-02-17T10:41:50;5.50;;;5.03;;
2191;SDS011;1102;49.718;11.902;2023-02-17T10:44:20;4.07;;;3.50;;
2191;SDS011;1102;49.718;11.902;2023-02-17T10:46:50;4.57;;;4.10;;
2191;SDS011;1102;49.718;11.902;2023-02-17T10:52:00;3.57;;;3.27;;
2191;SDS011;1102;49.718;11.902;2023-02-17T10:54:31;8.83;;;4.77;;
2191;SDS011;1102;49.718;11.902;2023-02-17T10:57:01;5.40;;;4.23;;
2191;SDS011;1102;49.718;11.902;2023-02-17T10:59:34;5.60;;;5.10;;
2191;SDS011;1102;49.718;11.902;2023-02-17T11:02:14;7.10;;;4.93;;
2191;SDS011;1102;49.718;11.902;2023-02-17T11:04:53;4.67;;;4.07;;
2191;SDS011;1102;49.718;11.902;2023-02-17T11:07:36;9.80;;;5.57;;
2191;SDS011;1102;49.718;11.902;2023-02-17T11:13:18;5.33;;;4.93;;
2191;SDS011;1102;49.718;11.902;2023-02-17T11:15:57;5.73;;;4.93;;
2191;SDS011;1102;49.718;11.902;2023-02-17T11:18:27;5.80;;;5.23;;
2191;SDS011;1102;49.718;11.902;2023-02-17T11:21:02;6.80;;;5.10;;
2191;SDS011;1102;49.718;11.902;2023-02-17T11:23:34;3.70;;;3.40;;
2191;SDS011;1102;49.718;11.902;2023-02-17T11:26:02;7.30;;;5.40;;
2191;SDS011;1102;49.718;11.902;2023-02-17T11:28:42;4.87;;;4.37;;
2191;SDS011;1102;49.718;11.902;2023-02-17T11:31:22;9.50;;;4.97;;
2191;SDS011;1102;49.718;11.902;2023-02-17T11:33:53;5.40;;;4.90;;
2191;SDS011;1102;49.718;11.902;2023-02-17T11:38:50;5.00;;;4.50;;
2191;SDS011;1102;49.718;11.902;2023-02-17T11:41:17;6.30;;;4.90;;
2191;SDS011;1102;49.718;11.902;2023-02-17T11:43:50;6.27;;;4.50;;
2191;SDS011;1102;49.718;11.902;2023-02-17T11:51:42;4.20;;;3.50;;
2191;SDS011;1102;49.718;11.902;2023-02-17T11:56:42;4.93;;;4.43;;
2191;SDS011;1102;49.718;11.902;2023-02-17T11:59:39;5.23;;;4.13;;
2191;SDS011;1102;49.718;11.902;2023-02-17T12:02:23;4.70;;;4.30;;
2191;SDS011;1102;49.718;11.902;2023-02-17T12:07:45;6.70;;;4.93;;
2191;SDS011;1102;49.718;11.902;2023-02-17T12:10:25;6.40;;;5.80;;
2191;SDS011;1102;49.718;11.902;2023-02-17T12:18:47;5.37;;;4.70;;
2191;SDS011;1102;49.718;11.902;2023-02-17T12:26:36;4.27;;;3.37;;
2191;SDS011;1102;49.718;11.902;2023-02-17T12:29:23;4.73;;;4.30;;
2191;SDS011;1102;49.718;11.902;2023-02-17T12:32:09;3.53;;;3.20;;
2191;SDS011;1102;49.718;11.902;2023-02-17T12:34:48;4.70;;;3.53;;
2191;SDS011;1102;49.718;11.902;2023-02-17T12:37:23;5.40;;;4.90;;
2191;SDS011;1102;49.718;11.902;2023-02-17T12:39:55;5.30;;;4.87;;
2191;SDS011;1102;49.718;11.902;2023-02-17T12:42:31;5.33;;;3.90;;
2191;SDS011;1102;49.718;11.902;2023-02-17T12:45:03;3.53;;;3.23;;
2191;SDS011;1102;49.718;11.902;2023-02-17T12:47:47;6.40;;;3.97;;
2191;SDS011;1102;49.718;11.902;2023-02-17T12:50:25;4.07;;;3.27;;
2191;SDS011;1102;49.718;11.902;2023-02-17T12:52:53;3.60;;;3.30;;
2191;SDS011;1102;49.718;11.902;2023-02-17T12:55:26;4.23;;;3.80;;
2191;SDS011;1102;49.718;11.902;2023-02-17T12:58:10;5.17;;;3.87;;
2191;SDS011;1102;49.718;11.902;2023-02-17T13:00:42;11.50;;;6.43;;
2191;SDS011;1102;49.718;11.902;2023-02-17T13:03:12;5.83;;;5.33;;
2191;SDS011;1102;49.718;11.902;2023-02-17T13:05:43;4.80;;;4.33;;
2191;SDS011;1102;49.718;11.902;2023-02-17T13:08:31;4.67;;;4.20;;
2191;SDS011;1102;49.718;11.902;2023-02-17T13:11:25;4.27;;;3.93;;
2191;SDS011;1102;49.718;11.902;2023-02-17T13:16:52;3.80;;;3.17;;
2191;SDS011;1102;49.718;11.902;2023-02-17T13:19:26;3.40;;;3.17;;
2191;SDS011;1102;49.718;11.902;2023-02-17T13:21:57;5.33;;;3.97;;
2191;SDS011;1102;49.718;11.902;2023-02-17T13:24:37;4.70;;;4.37;;
2191;SDS011;1102;49.718;11.902;2023-02-17T13:35:45;5.70;;;5.30;;
2191;SDS011;1102;49.718;11.902;2023-02-17T13:38:12;8.43;;;5.70;;
2191;SDS011;1102;49.718;11.902;2023-02-17T13:40:50;7.07;;;4.10;;
2191;SDS011;1102;49.718;11.902;2023-02-17T13:43:18;3.30;;;3.00;;
2191;SDS011;1102;49.718;11.902;2023-02-17T13:45:48;3.50;;;2.60;;
2191;SDS011;1102;49.718;11.902;2023-02-17T13:48:24;3.70;;;3.40;;
2191;SDS011;1102;49.718;11.902;2023-02-17T13:53:32;4.23;;;3.73;;
2191;SDS011;1102;49.718;11.902;2023-02-17T13:58:38;78.77;;;45.53;;
2191;SDS011;1102;49.718;11.902;2023-02-17T14:01:12;86.83;;;49.33;;
2191;SDS011;1102;49.718;11.902;2023-02-17T14:03:42;12.83;;;10.80;;
2191;SDS011;1102;49.718;11.902;2023-02-17T14:06:35;34.20;;;23.47;;
2191;SDS011;1102;49.718;11.902;2023-02-17T14:09:13;11.90;;;4.60;;
2191;SDS011;1102;49.718;11.902;2023-02-17T14:11:45;4.17;;;3.47;;
2191;SDS011;1102;49.718;11.902;2023-02-17T14:14:12;4.40;;;4.00;;
2191;SDS011;1102;49.718;11.902;2023-02-17T14:16:40;4.40;;;4.10;;
2191;SDS011;1102;49.718;11.902;2023-02-17T14:19:11;4.23;;;3.87;;
2191;SDS011;1102;49.718;11.902;2023-02-17T14:21:59;14.27;;;13.17;;
2191;SDS011;1102;49.718;11.902;2023-02-17T14:24:34;5.17;;;4.77;;
2191;SDS011;1102;49.718;11.902;2023-02-17T14:27:06;4.57;;;4.13;;
2191;SDS011;1102;49.718;11.902;2023-02-17T14:29:40;4.00;;;3.70;;
2191;SDS011;1102;49.718;11.902;2023-02-17T14:35:08;2.57;;;2.37;;
2191;SDS011;1102;49.718;11.902;2023-02-17T14:37:39;3.60;;;3.30;;
2191;SDS011;1102;49.718;11.902;2023-02-17T14:40:20;5.17;;;3.10;;
2191;SDS011;1102;49.718;11.902;2023-02-17T14:42:48;3.70;;;3.40;;
2191;SDS011;1102;49.718;11.902;2023-02-17T14:45:16;3.97;;;3.67;;
2191;SDS011;1102;49.718;11.902;2023-02-17T14:47:44;2.63;;;2.10;;
2191;SDS011;1102;49.718;11.902;2023-02-17T14:50:12;7.33;;;3.53;;
2191;SDS011;1102;49.718;11.902;2023-02-17T14:52:48;3.47;;;3.07;;
2191;SDS011;1102;49.718;11.902;2023-02-17T14:55:17;2.83;;;2.63;;
2191;SDS011;1102;49.718;11.902;2023-02-17T14:58:00;3.70;;;3.40;;
2191;SDS011;1102;49.718;11.902;2023-02-17T15:00:27;3.03;;;2.73;;
2191;SDS011;1102;49.718;11.902;2023-02-17T15:02:54;3.60;;;3.30;;
2191;SDS011;1102;49.718;11.902;2023-02-17T15:05:20;3.80;;;3.50;;
2191;SDS011;1102;49.718;11.902;2023-02-17T15:07:47;2.53;;;2.33;;
2191;SDS011;1102;49.718;11.902;2023-02-17T15:10:20;3.00;;;2.80;;
2191;SDS011;1102;49.718;11.902;2023-02-17T15:12:50;3.40;;;3.10;;
2191;SDS011;1102;49.718;11.902;2023-02-17T15:15:17;4.60;;;4.30;;
2191;SDS011;1102;49.718;11.902;2023-02-17T15:17:45;2.90;;;2.70;;
2191;SDS011;1102;49.718;11.902;2023-02-17T15:20:12;6.10;;;3.47;;
2191;SDS011;1102;49.718;11.902;2023-02-17T15:22:41;3.83;;;3.50;;
2191;SDS011;1102;49.718;11.902;2023-02-17T15:25:16;3.30;;;3.10;;
2191;SDS011;1102;49.718;11.902;2023-02-17T15:27:47;4.13;;;3.83;;
2191;SDS011;1102;49.718;11.902;2023-02-17T15:30:15;3.90;;;3.53;;
2191;SDS011;1102;49.718;11.902;2023-02-17T15:32:44;3.27;;;2.93;;
2191;SDS011;1102;49.718;11.902;2023-02-17T15:35:13;2.40;;;2.20;;
2191;SDS011;1102;49.718;11.902;2023-02-17T15:37:42;2.90;;;2.70;;
2191;SDS011;1102;49.718;11.902;2023-02-17T15:40:13;2.60;;;2.40;;
2191;SDS011;1102;49.718;11.902;2023-02-17T15:42:45;2.57;;;2.37;;
2191;SDS011;1102;49.718;11.902;2023-02-17T15:45:15;2.73;;;2.53;;
2191;SDS011;1102;49.718;11.902;2023-02-17T15:47:45;4.60;;;3.47;;
2191;SDS011;1102;49.718;11.902;2023-02-17T15:50:14;4.10;;;3.70;;
2191;SDS011;1102;49.718;11.902;2023-02-17T15:52:45;5.43;;;2.90;;
2191;SDS011;1102;49.718;11.902;2023-02-17T15:55:12;2.63;;;2.43;;
2191;SDS011;1102;49.718;11.902;2023-02-17T15:57:41;2.40;;;2.20;;
2191;SDS011;1102;49.718;11.902;2023-02-17T16:00:15;10.40;;;8.17;;
2191;SDS011;1102;49.718;11.902;2023-02-17T16:02:45;7.03;;;6.43;;
2191;SDS011;1102;49.718;11.902;2023-02-17T16:05:12;2.93;;;2.63;;
2191;SDS011;1102;49.718;11.902;2023-02-17T16:07:41;2.87;;;2.67;;
2191;SDS011;1102;49.718;11.902;2023-02-17T16:10:09;3.83;;;3.50;;
2191;SDS011;1102;49.718;11.902;2023-02-17T16:12:37;3.60;;;3.33;;
2191;SDS011;1102;49.718;11.902;2023-02-17T16:15:05;7.83;;;6.50;;
2191;SDS011;1102;49.718;11.902;2023-02-17T16:17:37;3.53;;;3.23;;
2191;SDS011;1102;49.718;11.902;2023-02-17T16:20:04;14.00;;;10.47;;
2191;SDS011;1102;49.718;11.902;2023-02-17T16:23:00;3.20;;;2.90;;
2191;SDS011;1102;49.718;11.902;2023-02-17T16:25:28;4.27;;;3.17;;
2191;SDS011;1102;49.718;11.902;2023-02-17T16:27:55;2.70;;;2.40;;
2191;SDS011;1102;49.718;11.902;2023-02-17T16:30:28;6.53;;;5.90;;
2191;SDS011;1102;49.718;11.902;2023-02-17T16:32:57;3.33;;;2.93;;
2191;SDS011;1102;49.718;11.902;2023-02-17T16:35:25;8.30;;;7.10;;